Time;durP1;ratioP1;P1;durP2;ratioP2;P2;SDS_P1;SDS_P2;PMS_P1;PMS_P2;Temp;Humidity;BMP_temperature;BMP_pressure;BME280_temperature;BME280_humidity;BME280_pressure;Samples;Min_cycle;Max_cycle;Signal;HPM_P1;HPM_P2
2022/11/06 00:00:24;;;;;;;13.68;5.13;;;;;;;;;;4995054;28;20123;-67
2022/11/06 00:02:49;;;;;;;14.05;5.45;;;;;;;;;;4995140;28;20096;-67
2022/11/06 00:07:58;;;;;;;11.45;5.55;;;;;;;;;;4994748;28;20036;-67
2022/11/06 00:10:24;;;;;;;13.25;5.20;;;;;;;;;;4994764;28;20449;-66
2022/11/06 00:12:50;;;;;;;10.90;5.68;;;;;;;;;;4994739;28;20588;-68
2022/11/06 00:15:16;;;;;;;9.77;5.25;;;;;;;;;;4994741;28;20030;-68
2022/11/06 00:17:42;;;;;;;11.68;5.30;;;;;;;;;;4994596;28;20033;-67
2022/11/06 00:20:08;;;;;;;12.68;5.18;;;;;;;;;;4994717;28;20101;-65
2022/11/06 00:22:35;;;;;;;13.55;5.85;;;;;;;;;;4984088;28;20026;-65
2022/11/06 00:25:02;;;;;;;13.68;6.32;;;;;;;;;;4983966;28;20027;-65
2022/11/06 00:27:28;;;;;;;15.40;6.22;;;;;;;;;;4982436;28;20026;-67
2022/11/06 00:29:54;;;;;;;15.75;6.28;;;;;;;;;;4983374;28;20166;-65
2022/11/06 00:32:19;;;;;;;14.75;5.93;;;;;;;;;;4983468;28;20472;-67
2022/11/06 00:34:46;;;;;;;11.40;5.57;;;;;;;;;;4979442;28;20038;-67
2022/11/06 00:37:11;;;;;;;11.13;6.03;;;;;;;;;;4988372;28;20486;-67
2022/11/06 00:39:37;;;;;;;13.15;5.82;;;;;;;;;;4982446;28;20027;-66
2022/11/06 00:42:02;;;;;;;9.63;5.35;;;;;;;;;;4982709;28;20026;-67
2022/11/06 00:44:28;;;;;;;10.43;5.90;;;;;;;;;;4977623;28;20090;-67
2022/11/06 00:46:53;;;;;;;16.45;6.43;;;;;;;;;;4986866;28;20026;-67
2022/11/06 00:49:19;;;;;;;12.90;6.32;;;;;;;;;;4981884;28;20030;-67
2022/11/06 00:51:44;;;;;;;12.20;5.68;;;;;;;;;;4974491;28;20114;-67
2022/11/06 00:54:11;;;;;;;13.63;5.85;;;;;;;;;;4974730;28;20031;-66
2022/11/06 00:56:37;;;;;;;9.23;5.68;;;;;;;;;;4983736;28;20094;-67
2022/11/06 00:59:05;;;;;;;11.77;5.90;;;;;;;;;;4987343;28;20026;-67
2022/11/06 01:01:37;;;;;;;15.95;5.80;;;;;;;;;;4987949;28;20510;-67
2022/11/06 01:04:11;;;;;;;12.70;6.00;;;;;;;;;;4980901;28;20056;-67
2022/11/06 01:06:43;;;;;;;11.05;6.25;;;;;;;;;;4980726;28;20078;-67
2022/11/06 01:09:12;;;;;;;11.93;6.13;;;;;;;;;;4976053;28;20102;-68
2022/11/06 01:11:43;;;;;;;13.77;6.53;;;;;;;;;;4992000;28;20114;-67
2022/11/06 01:14:11;;;;;;;18.58;6.45;;;;;;;;;;4984383;28;20450;-67
2022/11/06 01:16:37;;;;;;;11.32;6.35;;;;;;;;;;4974287;28;20428;-67
2022/11/06 01:19:03;;;;;;;14.65;6.10;;;;;;;;;;4984654;28;20034;-67
2022/11/06 01:21:38;;;;;;;10.88;5.75;;;;;;;;;;4993608;28;20113;-67
2022/11/06 01:24:12;;;;;;;14.43;6.78;;;;;;;;;;4993498;28;20061;-67
2022/11/06 01:26:37;;;;;;;12.32;6.15;;;;;;;;;;4977762;28;20034;-68
2022/11/06 01:29:04;;;;;;;16.33;5.82;;;;;;;;;;4992037;28;20126;-68
2022/11/06 01:31:32;;;;;;;12.25;6.18;;;;;;;;;;4982849;28;20026;-67
2022/11/06 01:33:59;;;;;;;13.57;5.90;;;;;;;;;;4989623;28;20495;-68
2022/11/06 01:36:26;;;;;;;10.20;5.60;;;;;;;;;;4983320;28;20084;-68
2022/11/06 01:38:54;;;;;;;11.60;6.05;;;;;;;;;;4992209;28;20023;-68
2022/11/06 01:41:43;;;;;;;11.27;5.85;;;;;;;;;;4974638;28;20162;-68
2022/11/06 01:44:44;;;;;;;11.43;6.68;;;;;;;;;;4973952;28;20038;-68
2022/11/06 01:47:36;;;;;;;15.32;6.45;;;;;;;;;;4965277;28;20441;-66
2022/11/06 01:50:06;;;;;;;13.57;5.93;;;;;;;;;;4948703;28;20374;-68
2022/11/06 01:52:33;;;;;;;11.90;5.75;;;;;;;;;;4956621;28;20455;-68
2022/11/06 01:55:09;;;;;;;10.50;5.80;;;;;;;;;;4965470;28;20381;-68
2022/11/06 01:57:35;;;;;;;13.85;6.38;;;;;;;;;;4967954;28;20028;-68
2022/11/06 02:00:03;;;;;;;12.38;6.63;;;;;;;;;;4969144;28;20023;-67
2022/11/06 02:02:28;;;;;;;13.43;5.93;;;;;;;;;;4965938;28;20043;-68
2022/11/06 02:04:54;;;;;;;12.70;5.50;;;;;;;;;;4966444;28;20035;-68
2022/11/06 02:07:20;;;;;;;17.48;6.10;;;;;;;;;;4968958;28;20045;-67
2022/11/06 02:09:45;;;;;;;15.32;5.80;;;;;;;;;;4964574;28;20136;-68
2022/11/06 02:12:27;;;;;;;12.02;6.63;;;;;;;;;;4971815;28;20042;-67
2022/11/06 02:15:03;;;;;;;9.75;5.90;;;;;;;;;;4965793;28;20073;-67
2022/11/06 02:17:34;;;;;;;11.52;5.72;;;;;;;;;;4966751;28;20027;-68
2022/11/06 02:20:04;;;;;;;15.27;6.93;;;;;;;;;;4965861;28;20047;-68
2022/11/06 02:22:47;;;;;;;12.70;6.50;;;;;;;;;;4983853;28;20033;-68
2022/11/06 02:25:34;;;;;;;14.68;7.10;;;;;;;;;;4980198;28;20535;-68
2022/11/06 02:28:07;;;;;;;15.73;7.88;;;;;;;;;;4980052;28;20034;-68
2022/11/06 02:30:38;;;;;;;16.38;8.50;;;;;;;;;;4994915;28;20031;-68
2022/11/06 02:33:12;;;;;;;14.70;8.50;;;;;;;;;;4999475;28;20034;-67
2022/11/06 02:35:50;;;;;;;15.43;8.13;;;;;;;;;;4999520;28;20030;-67
2022/11/06 02:38:21;;;;;;;12.68;7.40;;;;;;;;;;4999602;28;20376;-68
2022/11/06 02:40:54;;;;;;;12.55;6.53;;;;;;;;;;4999552;28;20018;-67
2022/11/06 02:43:27;;;;;;;13.18;6.65;;;;;;;;;;4999408;28;20056;-68
2022/11/06 02:46:02;;;;;;;13.48;6.40;;;;;;;;;;4999407;28;20112;-67
2022/11/06 02:48:31;;;;;;;15.15;6.57;;;;;;;;;;4999403;28;20022;-67
2022/11/06 02:50:59;;;;;;;11.10;5.43;;;;;;;;;;4999587;28;20081;-68
2022/11/06 02:53:25;;;;;;;10.30;6.13;;;;;;;;;;4997943;28;20033;-67
2022/11/06 02:55:58;;;;;;;13.00;6.55;;;;;;;;;;4999317;28;20026;-67
2022/11/06 02:58:33;;;;;;;12.98;6.57;;;;;;;;;;4999315;28;20065;-68
2022/11/06 03:01:10;;;;;;;12.80;6.28;;;;;;;;;;4999086;28;20117;-67
2022/11/06 03:03:40;;;;;;;12.60;6.63;;;;;;;;;;4999298;28;20472;-66
2022/11/06 03:06:09;;;;;;;;;;;;;;;;;;4997289;28;20029;-67
2022/11/06 03:08:37;;;;;;;9.70;5.63;;;;;;;;;;4996135;28;19914;-67
2022/11/06 03:11:26;;;;;;;13.80;6.22;;;;;;;;;;4996092;28;20109;-66
2022/11/06 03:14:13;;;;;;;13.25;6.30;;;;;;;;;;4996363;28;20304;-68
2022/11/06 03:16:48;;;;;;;14.65;5.72;;;;;;;;;;4996137;28;20038;-66
2022/11/06 03:19:25;;;;;;;16.45;7.43;;;;;;;;;;4996026;28;20030;-67
2022/11/06 03:21:51;;;;;;;13.40;6.30;;;;;;;;;;4995887;28;20030;-67
2022/11/06 03:24:28;;;;;;;11.50;5.50;;;;;;;;;;4995895;28;20591;-67
2022/11/06 03:26:54;;;;;;;11.38;5.38;;;;;;;;;;4995905;28;20026;-67
2022/11/06 03:29:41;;;;;;;13.95;5.72;;;;;;;;;;4995111;28;20042;-67
2022/11/06 03:32:17;;;;;;;7.10;4.03;;;;;;;;;;4995670;28;20125;-67
2022/11/06 03:35:09;;;;;;;7.75;4.70;;;;;;;;;;4995510;28;20034;-67
2022/11/06 03:37:43;;;;;;;12.07;5.85;;;;;;;;;;4995574;28;20102;-67
2022/11/06 03:40:14;;;;;;;12.40;5.63;;;;;;;;;;4995722;28;20388;-67
2022/11/06 03:42:42;;;;;;;13.18;5.97;;;;;;;;;;4995547;28;20105;-67
2022/11/06 03:45:15;;;;;;;9.00;4.55;;;;;;;;;;4995309;28;20110;-68
2022/11/06 03:47:50;;;;;;;14.10;6.10;;;;;;;;;;4995547;28;20054;-67
2022/11/06 03:50:23;;;;;;;11.45;5.55;;;;;;;;;;4995631;28;20034;-67
2022/11/06 03:53:00;;;;;;;11.88;6.53;;;;;;;;;;4995275;28;20022;-66
2022/11/06 03:55:35;;;;;;;7.88;4.40;;;;;;;;;;4995420;28;20380;-67
2022/11/06 03:58:05;;;;;;;10.88;5.22;;;;;;;;;;4995021;28;20054;-66
2022/11/06 04:00:34;;;;;;;9.93;5.82;;;;;;;;;;4995350;28;20543;-67
2022/11/06 04:03:06;;;;;;;14.63;5.45;;;;;;;;;;4995199;28;20030;-67
2022/11/06 04:05:40;;;;;;;11.18;4.63;;;;;;;;;;4995233;28;20270;-68
2022/11/06 04:13:56;;;;;;;10.65;4.40;;;;;;;;;;4994691;28;20550;-67
2022/11/06 04:16:23;;;;;;;15.23;5.30;;;;;;;;;;4994856;28;20038;-66
2022/11/06 04:18:49;;;;;;;10.68;5.00;;;;;;;;;;4992317;28;20022;-66
2022/11/06 04:21:26;;;;;;;8.07;5.07;;;;;;;;;;4994756;28;20466;-67
2022/11/06 04:27:00;;;;;;;10.43;4.35;;;;;;;;;;4994623;28;20089;-67
2022/11/06 04:29:48;;;;;;;11.82;5.40;;;;;;;;;;4994235;28;20507;-68
2022/11/06 04:32:53;;;;;;;10.43;4.82;;;;;;;;;;4994427;28;20034;-68
2022/11/06 04:35:32;;;;;;;9.73;4.90;;;;;;;;;;4972594;28;20047;-68
2022/11/06 04:38:25;;;;;;;9.13;4.80;;;;;;;;;;4973086;28;20074;-68
2022/11/06 04:40:54;;;;;;;7.38;4.28;;;;;;;;;;4973037;28;20541;-68
2022/11/06 04:43:30;;;;;;;6.80;4.00;;;;;;;;;;4972643;28;20042;-69
2022/11/06 04:45:59;;;;;;;9.90;4.95;;;;;;;;;;4972856;28;20034;-68
2022/11/06 04:48:26;;;;;;;9.23;4.70;;;;;;;;;;4972889;28;20031;-67
2022/11/06 04:50:57;;;;;;;9.13;5.00;;;;;;;;;;4972800;28;20122;-67
2022/11/06 04:53:25;;;;;;;10.10;5.18;;;;;;;;;;4972779;28;20109;-67
2022/11/06 04:55:58;;;;;;;8.82;5.25;;;;;;;;;;4972500;28;20412;-67
2022/11/06 04:58:24;;;;;;;8.85;4.43;;;;;;;;;;4972533;28;20038;-68
2022/11/06 05:00:50;;;;;;;11.35;4.60;;;;;;;;;;4972619;28;20031;-68
2022/11/06 05:03:17;;;;;;;10.00;5.03;;;;;;;;;;4972357;28;20042;-68
2022/11/06 05:05:42;;;;;;;11.27;5.13;;;;;;;;;;4972475;28;20088;-68
2022/11/06 05:08:13;;;;;;;9.75;4.53;;;;;;;;;;4972352;28;20110;-67
2022/11/06 05:10:40;;;;;;;12.63;5.40;;;;;;;;;;4980671;28;20087;-67
2022/11/06 05:13:05;;;;;;;8.50;4.78;;;;;;;;;;4993764;28;20029;-68
2022/11/06 05:15:30;;;;;;;9.57;4.65;;;;;;;;;;4993875;28;20026;-67
2022/11/06 05:17:57;;;;;;;11.40;5.75;;;;;;;;;;4993757;28;20396;-67
2022/11/06 05:20:23;;;;;;;10.50;4.95;;;;;;;;;;4993732;28;20036;-67
2022/11/06 05:23:01;;;;;;;12.23;5.20;;;;;;;;;;4993712;28;20595;-67
2022/11/06 05:25:28;;;;;;;10.55;5.53;;;;;;;;;;4993555;28;20470;-68
2022/11/06 05:27:54;;;;;;;8.63;4.35;;;;;;;;;;4993372;28;20022;-67
2022/11/06 05:30:19;;;;;;;13.00;4.90;;;;;;;;;;4992998;28;20117;-68
2022/11/06 05:32:45;;;;;;;11.70;4.75;;;;;;;;;;4993506;28;20033;-68
2022/11/06 05:35:10;;;;;;;12.90;5.50;;;;;;;;;;4993758;28;20515;-67
2022/11/06 05:37:36;;;;;;;7.22;3.92;;;;;;;;;;4993590;28;20015;-67
2022/11/06 05:40:01;;;;;;;9.80;4.20;;;;;;;;;;4993342;28;20078;-68
2022/11/06 05:42:27;;;;;;;13.23;5.47;;;;;;;;;;4993317;28;20106;-67
2022/11/06 05:44:53;;;;;;;9.02;5.07;;;;;;;;;;4993511;28;20068;-68
2022/11/06 05:47:18;;;;;;;12.63;5.15;;;;;;;;;;4993370;28;20105;-67
2022/11/06 05:49:44;;;;;;;5.90;3.63;;;;;;;;;;4993105;28;20464;-66
2022/11/06 05:52:09;;;;;;;11.23;5.20;;;;;;;;;;4993221;28;20035;-68
2022/11/06 05:54:35;;;;;;;9.60;5.70;;;;;;;;;;4991768;28;20462;-68
2022/11/06 05:57:00;;;;;;;12.65;5.05;;;;;;;;;;4993385;28;20060;-67
2022/11/06 05:59:25;;;;;;;14.68;5.82;;;;;;;;;;4993189;28;20424;-66
2022/11/06 06:01:51;;;;;;;12.65;5.30;;;;;;;;;;4993151;28;20035;-68
2022/11/06 06:04:16;;;;;;;10.23;5.82;;;;;;;;;;4993329;28;20165;-67
2022/11/06 06:06:42;;;;;;;12.95;5.88;;;;;;;;;;4993054;28;20384;-67
2022/11/06 06:09:08;;;;;;;11.90;5.90;;;;;;;;;;4993198;28;20035;-66
2022/11/06 06:11:33;;;;;;;9.57;5.25;;;;;;;;;;4993211;28;20031;-67
2022/11/06 06:14:00;;;;;;;7.72;4.10;;;;;;;;;;4993234;28;20502;-68
2022/11/06 06:16:26;;;;;;;14.43;6.25;;;;;;;;;;4993131;28;20110;-68
2022/11/06 06:18:51;;;;;;;10.07;5.13;;;;;;;;;;4993199;28;20054;-67
2022/11/06 06:21:17;;;;;;;10.57;5.00;;;;;;;;;;4993080;28;20054;-67
2022/11/06 06:23:43;;;;;;;12.75;5.95;;;;;;;;;;4992785;28;20031;-68
2022/11/06 06:26:08;;;;;;;11.82;6.07;;;;;;;;;;4993173;28;20022;-67
2022/11/06 06:28:34;;;;;;;11.32;5.50;;;;;;;;;;4992777;28;20047;-67
2022/11/06 06:31:03;;;;;;;14.55;5.72;;;;;;;;;;4992842;28;20034;-67
2022/11/06 06:33:28;;;;;;;13.93;5.75;;;;;;;;;;4992927;28;20101;-66
2022/11/06 06:35:54;;;;;;;8.90;4.32;;;;;;;;;;4992880;28;20026;-68
2022/11/06 06:38:19;;;;;;;11.68;5.60;;;;;;;;;;4992730;28;20030;-67
2022/11/06 06:40:45;;;;;;;12.10;7.45;;;;;;;;;;4993780;28;20030;-67
2022/11/06 06:43:10;;;;;;;14.05;6.25;;;;;;;;;;4996630;28;20365;-68
2022/11/06 06:45:36;;;;;;;11.75;5.90;;;;;;;;;;4996629;28;20026;-67
2022/11/06 06:48:04;;;;;;;10.93;5.95;;;;;;;;;;4996521;28;20026;-66
2022/11/06 06:50:30;;;;;;;19.65;6.95;;;;;;;;;;4996487;28;20030;-67
2022/11/06 06:52:57;;;;;;;11.77;4.88;;;;;;;;;;4996177;28;20052;-65
2022/11/06 06:55:22;;;;;;;14.40;6.65;;;;;;;;;;4996368;28;20435;-67
2022/11/06 06:57:53;;;;;;;12.23;5.82;;;;;;;;;;4996422;28;20077;-67
2022/11/06 07:00:19;;;;;;;9.32;5.30;;;;;;;;;;4996371;28;20030;-66
2022/11/06 07:02:45;;;;;;;9.75;5.00;;;;;;;;;;4996197;28;20463;-66
2022/11/06 07:05:10;;;;;;;7.97;4.85;;;;;;;;;;4996291;28;20106;-67
2022/11/06 07:07:36;;;;;;;8.50;4.78;;;;;;;;;;4996091;28;20025;-67
2022/11/06 07:10:01;;;;;;;5.65;3.75;;;;;;;;;;4996289;28;20030;-68
2022/11/06 07:12:27;;;;;;;8.45;4.25;;;;;;;;;;4995969;28;20094;-67
2022/11/06 07:14:52;;;;;;;7.10;4.38;;;;;;;;;;4996193;28;20494;-66
2022/11/06 07:17:18;;;;;;;8.98;4.40;;;;;;;;;;4996032;28;20394;-69
2022/11/06 07:19:43;;;;;;;7.32;4.15;;;;;;;;;;4996074;28;20019;-68
2022/11/06 07:22:08;;;;;;;7.38;4.60;;;;;;;;;;4995698;28;20034;-68
2022/11/06 07:24:34;;;;;;;9.45;4.47;;;;;;;;;;4995844;28;20124;-68
2022/11/06 07:26:59;;;;;;;8.45;4.60;;;;;;;;;;4995900;28;20033;-68
2022/11/06 07:29:25;;;;;;;12.55;5.05;;;;;;;;;;4995285;28;20558;-68
2022/11/06 07:31:50;;;;;;;9.48;5.43;;;;;;;;;;4995561;28;20030;-68
2022/11/06 07:34:16;;;;;;;8.40;4.80;;;;;;;;;;4994564;28;20030;-68
2022/11/06 07:36:41;;;;;;;7.85;4.78;;;;;;;;;;4995388;28;20048;-68
2022/11/06 07:39:07;;;;;;;9.48;4.55;;;;;;;;;;4995701;28;20018;-68
2022/11/06 07:41:32;;;;;;;8.68;4.68;;;;;;;;;;4995546;28;20377;-68
2022/11/06 07:43:58;;;;;;;11.50;4.60;;;;;;;;;;4995466;28;20101;-67
2022/11/06 07:46:23;;;;;;;6.53;3.92;;;;;;;;;;4995359;28;20057;-68
2022/11/06 07:48:49;;;;;;;6.80;4.28;;;;;;;;;;4995072;28;20018;-68
2022/11/06 07:51:14;;;;;;;9.48;4.20;;;;;;;;;;4994947;28;20027;-68
2022/11/06 07:53:40;;;;;;;5.57;4.03;;;;;;;;;;4995107;28;20457;-68
2022/11/06 07:56:07;;;;;;;7.63;3.90;;;;;;;;;;4995213;28;20094;-67
2022/11/06 07:58:33;;;;;;;6.97;4.32;;;;;;;;;;4995207;28;20034;-68
2022/11/06 08:00:59;;;;;;;8.18;4.00;;;;;;;;;;4995277;28;20464;-68
2022/11/06 08:03:25;;;;;;;7.32;4.57;;;;;;;;;;4995331;28;20038;-68
2022/11/06 08:05:51;;;;;;;7.57;4.35;;;;;;;;;;4994960;28;20034;-67
2022/11/06 08:08:17;;;;;;;8.57;4.32;;;;;;;;;;4994912;28;20027;-68
2022/11/06 08:10:42;;;;;;;7.60;4.75;;;;;;;;;;4995067;28;20030;-68
2022/11/06 08:13:09;;;;;;;6.88;4.25;;;;;;;;;;4994820;28;20053;-68
2022/11/06 08:15:37;;;;;;;9.02;4.50;;;;;;;;;;4995146;28;20057;-67
2022/11/06 08:18:03;;;;;;;6.82;3.80;;;;;;;;;;4994885;28;20022;-68
2022/11/06 08:20:28;;;;;;;7.30;4.05;;;;;;;;;;4994586;28;20030;-68
2022/11/06 08:22:58;;;;;;;7.60;3.92;;;;;;;;;;4994777;28;20422;-68
2022/11/06 08:25:24;;;;;;;;;;;;;;;;;;4995233;28;20018;-66
2022/11/06 08:27:49;;;;;;;7.38;3.95;;;;;;;;;;4994587;28;19920;-64
2022/11/06 08:30:15;;;;;;;5.63;4.05;;;;;;;;;;4994508;28;20027;-68
2022/11/06 08:32:40;;;;;;;9.25;3.67;;;;;;;;;;4994474;28;20542;-67
2022/11/06 08:35:06;;;;;;;7.63;3.95;;;;;;;;;;4994351;28;20041;-66
2022/11/06 08:37:32;;;;;;;7.28;4.05;;;;;;;;;;4994506;28;20479;-68
2022/11/06 08:39:57;;;;;;;9.05;4.90;;;;;;;;;;4994408;28;20049;-68
2022/11/06 08:42:23;;;;;;;8.60;4.75;;;;;;;;;;4994428;28;20030;-68
2022/11/06 08:44:48;;;;;;;9.60;4.72;;;;;;;;;;4994382;28;20471;-68
2022/11/06 08:47:13;;;;;;;8.18;3.97;;;;;;;;;;4994326;28;20495;-67
2022/11/06 08:49:39;;;;;;;8.07;4.30;;;;;;;;;;4994080;28;20030;-67
2022/11/06 08:52:04;;;;;;;8.00;4.20;;;;;;;;;;4994148;28;20041;-68
2022/11/06 08:54:30;;;;;;;10.52;4.18;;;;;;;;;;4993937;28;20428;-68
2022/11/06 08:56:56;;;;;;;6.55;3.95;;;;;;;;;;4994201;28;20022;-69
2022/11/06 08:59:22;;;;;;;12.57;4.25;;;;;;;;;;4992735;28;20383;-68
2022/11/06 09:01:47;;;;;;;7.40;4.00;;;;;;;;;;4993988;28;20067;-68
2022/11/06 09:04:13;;;;;;;8.70;3.88;;;;;;;;;;4993055;28;20118;-67
2022/11/06 09:06:38;;;;;;;7.10;4.05;;;;;;;;;;4993927;28;20460;-68
2022/11/06 09:09:04;;;;;;;8.30;3.92;;;;;;;;;;4993965;28;20025;-68
2022/11/06 09:11:30;;;;;;;8.55;4.40;;;;;;;;;;4993940;28;20033;-68
2022/11/06 09:13:56;;;;;;;7.00;3.33;;;;;;;;;;4993945;28;20247;-67
2022/11/06 09:16:23;;;;;;;7.78;4.20;;;;;;;;;;4993857;28;20230;-68
2022/11/06 09:18:48;;;;;;;7.28;3.83;;;;;;;;;;4993689;28;20038;-67
2022/11/06 09:21:14;;;;;;;7.57;3.85;;;;;;;;;;4993786;28;20022;-68
2022/11/06 09:23:39;;;;;;;8.77;4.20;;;;;;;;;;4993343;28;20372;-68
2022/11/06 09:26:05;;;;;;;7.20;3.80;;;;;;;;;;4993851;28;20023;-68
2022/11/06 09:28:30;;;;;;;7.53;4.20;;;;;;;;;;4993473;28;20046;-68
2022/11/06 09:30:56;;;;;;;6.03;3.30;;;;;;;;;;4993356;28;20379;-68
2022/11/06 09:33:21;;;;;;;7.78;3.83;;;;;;;;;;4993273;28;20027;-69
2022/11/06 09:35:47;;;;;;;6.93;4.00;;;;;;;;;;4993917;28;20022;-68
2022/11/06 09:38:14;;;;;;;9.00;4.05;;;;;;;;;;5013285;28;20044;-66
2022/11/06 09:40:49;;;;;;;9.95;4.38;;;;;;;;;;5012984;28;20631;-68
2022/11/06 09:43:35;;;;;;;10.43;4.30;;;;;;;;;;5013050;28;20467;-69
2022/11/06 09:46:13;;;;;;;11.07;4.40;;;;;;;;;;5005442;28;20038;-68
2022/11/06 09:48:44;;;;;;;6.05;3.72;;;;;;;;;;5013122;28;20044;-67
2022/11/06 09:51:38;;;;;;;9.55;4.43;;;;;;;;;;5013109;28;20026;-67
2022/11/06 09:54:06;;;;;;;7.55;4.15;;;;;;;;;;5006151;28;20030;-67
2022/11/06 09:56:34;;;;;;;8.73;4.80;;;;;;;;;;5009023;28;20038;-66
2022/11/06 09:59:04;;;;;;;8.90;4.30;;;;;;;;;;5000312;28;20139;-66
2022/11/06 10:01:42;;;;;;;8.70;4.53;;;;;;;;;;5000542;28;20068;-67
2022/11/06 10:04:38;;;;;;;11.43;4.53;;;;;;;;;;4996136;28;20038;-67
2022/11/06 10:07:03;;;;;;;6.63;4.20;;;;;;;;;;4981563;28;20053;-67
2022/11/06 10:09:29;;;;;;;9.77;5.45;;;;;;;;;;4980241;28;20022;-68
2022/11/06 10:12:14;;;;;;;7.00;4.47;;;;;;;;;;4981417;28;20118;-67
2022/11/06 10:14:55;;;;;;;9.70;4.35;;;;;;;;;;4983094;28;20143;-67
2022/11/06 10:17:36;;;;;;;8.00;4.95;;;;;;;;;;4989078;28;20027;-66
2022/11/06 10:20:14;;;;;;;7.28;4.32;;;;;;;;;;4986797;28;20026;-67
2022/11/06 10:22:48;;;;;;;8.85;4.55;;;;;;;;;;4990179;28;20045;-66
2022/11/06 10:25:20;;;;;;;8.98;4.22;;;;;;;;;;4985283;28;20061;-65
2022/11/06 10:28:02;;;;;;;4.55;3.40;;;;;;;;;;4985038;28;20408;-63
2022/11/06 10:31:06;;;;;;;7.47;3.85;;;;;;;;;;4988752;28;20034;-67
2022/11/06 10:33:50;;;;;;;7.47;3.97;;;;;;;;;;4985360;28;20046;-64
2022/11/06 10:36:48;;;;;;;9.88;3.83;;;;;;;;;;4986163;28;20384;-66
2022/11/06 10:39:19;;;;;;;7.93;3.58;;;;;;;;;;4985719;28;20078;-66
2022/11/06 10:41:51;;;;;;;8.82;3.88;;;;;;;;;;4985205;28;21221;-67
2022/11/06 10:44:37;;;;;;;7.68;3.85;;;;;;;;;;4984404;28;20098;-69
2022/11/06 10:47:20;;;;;;;7.07;3.72;;;;;;;;;;4981589;28;20030;-63
2022/11/06 10:49:55;;;;;;;6.63;3.72;;;;;;;;;;4986814;28;20022;-68
2022/11/06 10:52:51;;;;;;;5.65;3.63;;;;;;;;;;4985832;28;20023;-65
2022/11/06 10:55:54;;;;;;;7.18;3.78;;;;;;;;;;4986470;28;20018;-66
2022/11/06 10:58:27;;;;;;;5.95;3.40;;;;;;;;;;4985023;28;20034;-66
2022/11/06 11:00:56;;;;;;;7.93;3.97;;;;;;;;;;4990279;28;20037;-66
2022/11/06 11:03:35;;;;;;;7.88;3.95;;;;;;;;;;4996081;28;20037;-67
2022/11/06 11:06:03;;;;;;;5.95;3.58;;;;;;;;;;4996019;28;20057;-67
2022/11/06 11:08:45;;;;;;;6.85;3.70;;;;;;;;;;4996066;28;20026;-68
2022/11/06 11:11:15;;;;;;;6.40;3.45;;;;;;;;;;4996213;28;20630;-67
2022/11/06 11:14:06;;;;;;;6.07;3.60;;;;;;;;;;4995691;28;20034;-67
2022/11/06 11:16:33;;;;;;;;;;;;;;;;;;4992481;28;20038;-66
2022/11/06 11:19:21;;;;;;;5.70;3.50;;;;;;;;;;4995974;28;19945;-67
2022/11/06 11:21:58;;;;;;;6.88;3.88;;;;;;;;;;4995780;28;20037;-65
2022/11/06 11:24:24;;;;;;;7.28;3.60;;;;;;;;;;4985708;28;20031;-68
2022/11/06 11:26:54;;;;;;;8.75;3.45;;;;;;;;;;4975797;28;20098;-68
2022/11/06 11:29:28;;;;;;;5.57;3.50;;;;;;;;;;4980782;28;20054;-68
2022/11/06 11:31:56;;;;;;;6.18;3.47;;;;;;;;;;4995584;28;20073;-66
2022/11/06 11:34:28;;;;;;;6.65;3.60;;;;;;;;;;4995610;28;20026;-67
2022/11/06 11:36:53;;;;;;;6.78;3.70;;;;;;;;;;4995550;28;20476;-68
2022/11/06 11:39:21;;;;;;;5.25;3.55;;;;;;;;;;4995552;28;20036;-68
2022/11/06 11:41:47;;;;;;;6.25;3.55;;;;;;;;;;4995045;28;20026;-67
2022/11/06 11:44:16;;;;;;;7.43;4.43;;;;;;;;;;4995466;28;20089;-68
2022/11/06 11:46:48;;;;;;;6.22;3.58;;;;;;;;;;4995434;28;20030;-67
2022/11/06 11:49:30;;;;;;;8.13;3.55;;;;;;;;;;4995377;28;20028;-68
2022/11/06 11:52:01;;;;;;;8.43;4.10;;;;;;;;;;4995082;28;20122;-68
2022/11/06 11:54:31;;;;;;;6.47;3.60;;;;;;;;;;4995055;28;20106;-67
2022/11/06 11:57:02;;;;;;;5.10;3.20;;;;;;;;;;4994648;28;20061;-66
2022/11/06 11:59:37;;;;;;;7.55;3.70;;;;;;;;;;4995080;28;20026;-68
2022/11/06 12:02:28;;;;;;;6.40;2.80;;;;;;;;;;4994860;28;20030;-66
2022/11/06 12:05:00;;;;;;;6.78;3.60;;;;;;;;;;4994936;28;20037;-68
2022/11/06 12:07:29;;;;;;;8.85;3.10;;;;;;;;;;4995037;28;20611;-67
2022/11/06 12:09:55;;;;;;;5.57;3.40;;;;;;;;;;4995001;28;20557;-70
2022/11/06 12:12:30;;;;;;;9.18;3.72;;;;;;;;;;4994401;28;20054;-67
2022/11/06 12:15:25;;;;;;;8.27;2.75;;;;;;;;;;4994811;28;20042;-67
2022/11/06 12:18:08;;;;;;;8.07;3.72;;;;;;;;;;4994578;28;20027;-67
2022/11/06 12:20:33;;;;;;;6.15;3.63;;;;;;;;;;4994739;28;20026;-66
2022/11/06 12:23:01;;;;;;;10.25;3.95;;;;;;;;;;4994578;28;20027;-66
2022/11/06 12:25:38;;;;;;;8.45;3.63;;;;;;;;;;4994353;28;20030;-67
2022/11/06 12:28:11;;;;;;;5.43;3.33;;;;;;;;;;4990623;28;20468;-66
2022/11/06 12:30:41;;;;;;;6.43;3.60;;;;;;;;;;4985040;28;20329;-67
2022/11/06 12:33:15;;;;;;;7.63;3.75;;;;;;;;;;4984328;28;20015;-65
2022/11/06 12:35:46;;;;;;;5.65;2.78;;;;;;;;;;4977489;28;20478;-67
2022/11/06 12:38:17;;;;;;;6.90;3.83;;;;;;;;;;4974426;28;20023;-70
2022/11/06 12:41:04;;;;;;;7.78;3.05;;;;;;;;;;4974757;28;20022;-68
2022/11/06 12:43:42;;;;;;;7.30;3.20;;;;;;;;;;4981785;28;20026;-69
2022/11/06 12:46:26;;;;;;;7.15;3.05;;;;;;;;;;4994445;28;20061;-67
2022/11/06 12:49:26;;;;;;;7.28;3.40;;;;;;;;;;4994214;28;20101;-67
2022/11/06 12:52:10;;;;;;;7.15;3.20;;;;;;;;;;4994136;28;20088;-67
2022/11/06 12:54:47;;;;;;;6.13;3.03;;;;;;;;;;4993806;28;20034;-68
2022/11/06 12:57:25;;;;;;;5.38;2.92;;;;;;;;;;4993858;28;20030;-67
2022/11/06 12:59:59;;;;;;;7.93;3.33;;;;;;;;;;4994046;28;20041;-66
2022/11/06 13:03:02;;;;;;;5.95;3.55;;;;;;;;;;4993926;28;20073;-68
2022/11/06 13:05:59;;;;;;;9.70;3.17;;;;;;;;;;4993901;28;20026;-68
2022/11/06 13:08:49;;;;;;;9.35;2.83;;;;;;;;;;4993946;28;20030;-68
2022/11/06 13:11:47;;;;;;;5.30;2.60;;;;;;;;;;4993860;28;20030;-68
2022/11/06 13:14:21;;;;;;;3.95;2.47;;;;;;;;;;4993892;28;20542;-68
2022/11/06 13:17:24;;;;;;;6.38;3.30;;;;;;;;;;4992642;28;20451;-69
2022/11/06 13:20:07;;;;;;;5.78;2.90;;;;;;;;;;4993837;28;20491;-69
2022/11/06 13:22:42;;;;;;;9.70;3.90;;;;;;;;;;4993682;28;20038;-68
2022/11/06 13:25:13;;;;;;;8.48;3.50;;;;;;;;;;4993535;28;20499;-68
2022/11/06 13:27:54;;;;;;;10.93;3.33;;;;;;;;;;4993435;28;20176;-69
2022/11/06 13:30:23;;;;;;;6.35;2.80;;;;;;;;;;4991928;28;20411;-69
2022/11/06 13:33:05;;;;;;;5.60;2.97;;;;;;;;;;4993409;28;20135;-67
2022/11/06 13:35:32;;;;;;;5.63;3.08;;;;;;;;;;4993487;28;20472;-68
2022/11/06 13:37:59;;;;;;;5.47;2.95;;;;;;;;;;4993289;28;20960;-68
2022/11/06 13:40:46;;;;;;;6.43;3.15;;;;;;;;;;4993280;28;20026;-70
2022/11/06 13:43:18;;;;;;;5.90;2.78;;;;;;;;;;4993213;28;20026;-66
2022/11/06 13:46:09;;;;;;;6.72;2.97;;;;;;;;;;4993273;28;20037;-68
2022/11/06 13:49:12;;;;;;;5.15;3.72;;;;;;;;;;4992647;28;20029;-68
2022/11/06 13:52:01;;;;;;;4.93;3.30;;;;;;;;;;4992999;28;20026;-68
2022/11/06 13:55:06;;;;;;;7.20;3.10;;;;;;;;;;4993046;28;20310;-68
2022/11/06 13:57:37;;;;;;;8.27;3.33;;;;;;;;;;4964768;28;20034;-67
2022/11/06 14:00:16;;;;;;;8.75;3.38;;;;;;;;;;4962452;28;20035;-68
2022/11/06 14:02:54;;;;;;;5.53;2.60;;;;;;;;;;4963333;28;20109;-68
2022/11/06 14:05:47;;;;;;;4.82;2.78;;;;;;;;;;4971692;28;20031;-68
2022/11/06 14:08:54;;;;;;;5.55;2.80;;;;;;;;;;4971485;28;20051;-68
2022/11/06 14:11:25;;;;;;;6.05;2.63;;;;;;;;;;4967734;28;20125;-68
2022/11/06 14:14:00;;;;;;;5.45;2.83;;;;;;;;;;4971401;28;20047;-68
2022/11/06 14:16:37;;;;;;;6.65;2.95;;;;;;;;;;4971618;28;20064;-69
2022/11/06 14:19:23;;;;;;;6.72;2.35;;;;;;;;;;4971550;28;20035;-67
2022/11/06 14:21:54;;;;;;;4.90;2.70;;;;;;;;;;4971048;28;20042;-68
2022/11/06 14:24:32;;;;;;;6.88;2.58;;;;;;;;;;4971392;28;20073;-68
2022/11/06 14:27:00;;;;;;;3.47;1.98;;;;;;;;;;4971428;28;20666;-68
2022/11/06 14:29:28;;;;;;;7.85;2.63;;;;;;;;;;4970780;28;20042;-67
2022/11/06 14:32:11;;;;;;;5.38;2.90;;;;;;;;;;4971081;28;20122;-68
2022/11/06 14:34:39;;;;;;;6.50;2.90;;;;;;;;;;4985383;28;20050;-68
2022/11/06 14:37:24;;;;;;;4.65;2.60;;;;;;;;;;4992700;28;20040;-68
2022/11/06 14:39:50;;;;;;;6.03;2.47;;;;;;;;;;4989038;28;20034;-69
2022/11/06 14:42:22;;;;;;;6.75;2.80;;;;;;;;;;4992864;28;20418;-67
2022/11/06 14:44:50;;;;;;;4.70;2.67;;;;;;;;;;4992994;28;20109;-68
2022/11/06 14:47:40;;;;;;;4.05;2.65;;;;;;;;;;4992795;28;20472;-69
2022/11/06 14:50:23;;;;;;;5.78;3.03;;;;;;;;;;4989767;28;20073;-66
2022/11/06 14:52:54;;;;;;;7.57;2.85;;;;;;;;;;4992621;28;20437;-66
2022/11/06 14:55:33;;;;;;;6.68;3.20;;;;;;;;;;4992694;28;20053;-67
2022/11/06 14:58:21;;;;;;;5.20;3.10;;;;;;;;;;4992584;28;20073;-66
2022/11/06 15:00:58;;;;;;;8.25;3.63;;;;;;;;;;4992769;28;20027;-66
2022/11/06 15:03:35;;;;;;;8.00;3.88;;;;;;;;;;4995683;28;20026;-66
2022/11/06 15:06:17;;;;;;;9.68;3.80;;;;;;;;;;4996009;28;20113;-68
2022/11/06 15:08:45;;;;;;;6.35;3.85;;;;;;;;;;4996180;28;20037;-68
2022/11/06 15:11:29;;;;;;;10.02;4.43;;;;;;;;;;4991973;28;20030;-67
2022/11/06 15:13:55;;;;;;;8.10;4.43;;;;;;;;;;4986782;28;20030;-68
2022/11/06 15:16:24;;;;;;;8.35;4.93;;;;;;;;;;4977152;28;20444;-66
2022/11/06 15:18:50;;;;;;;6.65;3.65;;;;;;;;;;4976528;28;20077;-67